Terminal Aerodrome Forecast
Issued by NWS La Crosse, WI

Home | Current Version | Previous Version | Text Only | Print | Product List | Glossary On
Versions: 1 2 3 4 5 6 7 8 9 10 11 12 13 14 15 16 17 18 19 20 21 22 23 24 25
000
FTUS43 KARX 061122
TAFLSE
TAF
KLSE 061122Z 0612/0712 18006KT P6SM SCT120
     FM061600 24010KT P6SM SKC
     FM062000 24012G21KT P6SM SKC
     FM070000 20009KT P6SM SCT120
     FM070700 33007KT P6SM VCSH BKN060=

USA.gov is the U.S. government's official web portal to all federal, state and local government web resources and services.